createdAt,value
2022-12-22T00:01:21.900Z,7.80
2022-12-22T00:04:08.419Z,7.78
2022-12-22T00:06:56.214Z,7.81
2022-12-22T00:09:46.146Z,7.82
2022-12-22T00:12:38.421Z,7.79
2022-12-22T00:15:31.630Z,7.78
2022-12-22T00:18:18.332Z,7.90
2022-12-22T00:21:05.109Z,7.89
2022-12-22T00:23:52.977Z,7.93
2022-12-22T00:26:39.239Z,7.99
2022-12-22T00:29:30.072Z,7.88
2022-12-22T00:32:16.450Z,7.80
2022-12-22T00:35:02.583Z,7.80
2022-12-22T00:37:51.900Z,7.86
2022-12-22T00:40:40.755Z,7.92
2022-12-22T00:43:27.134Z,7.82
2022-12-22T00:46:13.854Z,7.80
2022-12-22T00:49:02.486Z,7.80
2022-12-22T00:51:49.550Z,7.75
2022-12-22T00:54:37.393Z,7.73
2022-12-22T00:57:25.022Z,7.70
2022-12-22T01:00:13.682Z,7.83
2022-12-22T01:03:00.061Z,7.77
2022-12-22T01:05:46.250Z,7.75
2022-12-22T01:08:32.508Z,7.68
2022-12-22T01:11:18.549Z,7.62
2022-12-22T01:14:06.037Z,7.67
2022-12-22T01:16:52.216Z,7.67
2022-12-22T01:19:38.620Z,7.71
2022-12-22T01:22:27.939Z,7.69
2022-12-22T01:25:14.081Z,7.70
2022-12-22T01:28:00.440Z,7.78
2022-12-22T01:30:47.929Z,7.78
2022-12-22T01:33:34.134Z,7.85
2022-12-22T01:36:20.164Z,7.86
2022-12-22T01:39:06.294Z,7.93
2022-12-22T01:41:52.631Z,7.90
2022-12-22T01:44:39.007Z,7.95
2022-12-22T01:47:52.916Z,7.91
2022-12-22T01:50:44.429Z,7.95
2022-12-22T01:53:36.811Z,8.00
2022-12-22T01:56:23.907Z,7.96
2022-12-22T01:59:13.780Z,7.97
2022-12-22T02:02:00.876Z,8.02
2022-12-22T02:04:53.093Z,8.05
2022-12-22T02:07:50.962Z,8.06
2022-12-22T02:10:49.423Z,8.04
2022-12-22T02:13:48.219Z,8.08
2022-12-22T02:16:41.211Z,8.15
2022-12-22T02:19:40.528Z,8.11
2022-12-22T02:22:40.149Z,8.05
2022-12-22T02:25:33.398Z,8.09
2022-12-22T02:28:23.105Z,8.12
2022-12-22T02:31:10.172Z,8.10
2022-12-22T02:33:56.114Z,8.09
2022-12-22T02:36:51.453Z,8.13
2022-12-22T02:39:46.638Z,8.14
2022-12-22T02:42:40.798Z,8.13
2022-12-22T02:45:35.566Z,8.13
2022-12-22T02:48:26.518Z,8.17
2022-12-22T02:51:22.876Z,8.24
2022-12-22T02:54:10.839Z,8.16
2022-12-22T02:56:57.459Z,8.11
2022-12-22T02:59:43.443Z,8.11
2022-12-22T03:02:31.482Z,8.09
2022-12-22T03:05:17.550Z,8.08
2022-12-22T03:08:08.164Z,8.10
2022-12-22T03:10:55.614Z,8.27
2022-12-22T03:13:41.989Z,8.21
2022-12-22T03:16:28.133Z,8.21
2022-12-22T03:19:15.478Z,8.17
2022-12-22T03:22:01.478Z,8.18
2022-12-22T03:24:47.791Z,8.14
2022-12-22T03:27:16.509Z,8.17
2022-12-22T03:29:44.850Z,8.19
2022-12-22T03:32:13.220Z,8.18
2022-12-22T03:34:43.097Z,8.24
2022-12-22T03:37:11.420Z,8.23
2022-12-22T03:39:39.943Z,8.25
2022-12-22T03:42:25.979Z,8.20
2022-12-22T03:45:12.483Z,8.20
2022-12-22T03:47:41.137Z,8.19
2022-12-22T03:50:11.727Z,8.22
2022-12-22T03:52:40.032Z,8.22
2022-12-22T03:55:09.183Z,8.21
2022-12-22T03:57:37.486Z,8.23
2022-12-22T04:00:07.395Z,8.26
2022-12-22T04:02:35.826Z,8.27
2022-12-22T04:05:04.601Z,8.27
2022-12-22T04:07:34.472Z,8.25
2022-12-22T04:10:19.677Z,8.23
2022-12-22T04:12:57.404Z,8.22
2022-12-22T04:15:28.838Z,8.23
2022-12-22T04:17:58.753Z,8.23
2022-12-22T04:20:28.339Z,8.27
2022-12-22T04:22:58.879Z,8.26
2022-12-22T04:25:28.431Z,8.19
2022-12-22T04:27:56.898Z,8.21
2022-12-22T04:30:25.250Z,8.20
2022-12-22T04:32:53.574Z,8.19
2022-12-22T04:35:22.139Z,8.21
2022-12-22T04:37:50.464Z,8.18
2022-12-22T04:40:20.335Z,8.23
2022-12-22T04:42:48.812Z,8.27
2022-12-22T04:45:17.265Z,8.24
2022-12-22T04:47:45.614Z,8.18
2022-12-22T04:50:13.909Z,8.22
2022-12-22T04:52:42.470Z,8.22
2022-12-22T04:55:11.059Z,8.20
2022-12-22T04:57:41.281Z,8.20
2022-12-22T05:00:11.044Z,8.21
2022-12-22T05:02:39.448Z,8.25
2022-12-22T05:05:09.414Z,8.27
2022-12-22T05:07:38.051Z,8.29
2022-12-22T05:10:07.107Z,8.25
2022-12-22T05:12:53.199Z,8.26
2022-12-22T05:15:23.330Z,8.30
2022-12-22T05:17:51.951Z,8.33
2022-12-22T05:20:20.508Z,8.36
2022-12-22T05:22:49.194Z,8.37
2022-12-22T05:25:18.235Z,8.38
2022-12-22T05:27:57.675Z,8.41
2022-12-22T05:30:27.448Z,8.39
2022-12-22T05:32:55.777Z,8.40
2022-12-22T05:35:24.247Z,8.36
2022-12-22T05:37:52.645Z,8.33
2022-12-22T05:40:21.121Z,8.31
2022-12-22T05:42:49.451Z,8.31
2022-12-22T05:45:20.077Z,8.33
2022-12-22T05:47:52.308Z,8.35
2022-12-22T05:50:23.458Z,8.37
2022-12-22T05:52:51.807Z,8.36
2022-12-22T05:55:20.105Z,8.36
2022-12-22T05:57:48.414Z,8.38
2022-12-22T06:00:18.719Z,8.39
2022-12-22T06:02:47.281Z,8.41
2022-12-22T06:05:17.028Z,8.43
2022-12-22T06:07:45.399Z,8.45
2022-12-22T06:10:14.270Z,8.47
2022-12-22T06:12:43.568Z,8.48
2022-12-22T06:15:15.250Z,8.46
2022-12-22T06:17:45.141Z,8.48
2022-12-22T06:20:14.655Z,8.46
2022-12-22T06:22:44.516Z,8.45
2022-12-22T06:25:18.093Z,8.42
2022-12-22T06:27:47.546Z,8.38
2022-12-22T06:30:16.905Z,8.36
2022-12-22T06:32:45.291Z,8.39
2022-12-22T06:35:13.699Z,8.52
2022-12-22T06:37:43.716Z,8.49
2022-12-22T06:40:12.726Z,8.52
2022-12-22T06:43:04.135Z,8.46
2022-12-22T06:45:37.701Z,8.45
2022-12-22T06:48:06.228Z,8.47
2022-12-22T06:50:34.975Z,8.48
2022-12-22T06:53:05.166Z,8.47
2022-12-22T06:55:33.579Z,8.44
2022-12-22T06:58:02.263Z,8.42
2022-12-22T07:00:30.658Z,8.43
2022-12-22T07:02:59.259Z,8.42
2022-12-22T07:05:28.013Z,8.43
2022-12-22T07:07:57.905Z,8.47
2022-12-22T07:10:48.433Z,8.50
2022-12-22T07:13:24.165Z,8.59
2022-12-22T07:16:00.213Z,8.61
2022-12-22T07:18:31.236Z,8.60
2022-12-22T07:21:02.142Z,8.59
2022-12-22T07:23:31.218Z,8.62
2022-12-22T07:26:00.914Z,8.58
2022-12-22T07:28:29.528Z,8.63
2022-12-22T07:30:57.918Z,8.63
2022-12-22T07:33:26.365Z,8.63
2022-12-22T07:36:06.903Z,8.69
2022-12-22T07:38:37.372Z,8.71
2022-12-22T07:41:28.863Z,8.78
2022-12-22T07:43:58.457Z,8.77
2022-12-22T07:46:29.404Z,8.78
2022-12-22T07:49:15.602Z,8.76
2022-12-22T07:51:44.568Z,8.77
2022-12-22T07:54:14.798Z,8.71
2022-12-22T07:56:45.785Z,8.75
2022-12-22T07:59:14.824Z,8.76
2022-12-22T08:01:43.562Z,8.76
2022-12-22T08:04:12.240Z,8.74
2022-12-22T08:06:41.128Z,8.77
2022-12-22T08:09:11.052Z,8.80
2022-12-22T08:11:39.543Z,8.76
2022-12-22T08:14:09.491Z,8.76
2022-12-22T08:16:38.048Z,8.77
2022-12-22T08:19:06.406Z,8.70
2022-12-22T08:21:34.715Z,8.76
2022-12-22T08:24:03.166Z,8.74
2022-12-22T08:26:36.681Z,8.75
2022-12-22T08:29:12.408Z,8.80
2022-12-22T08:31:41.839Z,8.78
2022-12-22T08:34:13.623Z,8.80
2022-12-22T08:36:45.007Z,8.73
2022-12-22T08:39:15.640Z,8.75
2022-12-22T08:41:53.391Z,8.76
2022-12-22T08:44:24.923Z,8.73
2022-12-22T08:46:55.073Z,8.79
2022-12-22T08:49:24.328Z,8.77
2022-12-22T08:51:53.265Z,8.79
2022-12-22T08:54:22.125Z,8.85
2022-12-22T08:56:50.992Z,8.82
2022-12-22T08:59:19.647Z,8.84
2022-12-22T09:01:50.679Z,8.81
2022-12-22T09:04:22.067Z,8.80
2022-12-22T09:06:53.170Z,8.80
2022-12-22T09:09:22.080Z,8.82
2022-12-22T09:11:50.458Z,8.76
2022-12-22T09:14:19.012Z,8.80
2022-12-22T09:16:50.316Z,8.78
2022-12-22T09:19:18.932Z,8.77
2022-12-22T09:21:47.422Z,8.84
2022-12-22T09:24:16.200Z,8.87
2022-12-22T09:26:45.522Z,9.00
2022-12-22T09:29:15.988Z,8.97
2022-12-22T09:31:44.636Z,9.11
2022-12-22T09:34:18.023Z,9.11
2022-12-22T09:36:47.769Z,9.10
2022-12-22T09:39:16.855Z,9.13
2022-12-22T09:41:48.375Z,9.06
2022-12-22T09:44:24.768Z,9.21
2022-12-22T09:46:55.046Z,9.18
2022-12-22T09:49:24.800Z,9.21
2022-12-22T09:51:57.004Z,9.24
2022-12-22T09:54:26.790Z,9.18
2022-12-22T09:56:55.109Z,9.21
2022-12-22T09:59:27.052Z,9.13
2022-12-22T10:02:04.877Z,9.01
2022-12-22T10:04:50.183Z,8.95
2022-12-22T10:07:26.030Z,8.81
2022-12-22T10:09:54.593Z,8.78
2022-12-22T10:12:24.949Z,8.73
2022-12-22T10:14:55.187Z,8.81
2022-12-22T10:17:26.457Z,8.75
2022-12-22T10:20:10.602Z,8.75
2022-12-22T10:22:48.143Z,8.71
2022-12-22T10:25:35.781Z,8.72
2022-12-22T10:28:21.689Z,8.69
2022-12-22T10:30:50.483Z,8.56
2022-12-22T10:33:19.977Z,8.53
2022-12-22T10:35:52.677Z,8.63
2022-12-22T10:38:26.017Z,8.51
2022-12-22T10:41:02.129Z,8.42
2022-12-22T10:43:33.964Z,8.54
2022-12-22T10:46:04.294Z,8.36
2022-12-22T10:48:34.956Z,8.33
2022-12-22T10:51:07.941Z,8.32
2022-12-22T10:53:46.228Z,8.37
2022-12-22T10:56:23.227Z,9.96
2022-12-22T10:58:53.586Z,13.60
2022-12-22T11:01:30.082Z,17.68
2022-12-22T11:04:15.364Z,19.42
2022-12-22T11:06:45.975Z,21.10
2022-12-22T11:09:32.980Z,21.31
2022-12-22T11:12:11.772Z,22.01
2022-12-22T11:14:48.975Z,22.14
2022-12-22T11:17:23.892Z,20.78
2022-12-22T11:20:05.106Z,18.30
2022-12-22T11:22:41.468Z,15.02
2022-12-22T11:25:28.928Z,13.59
2022-12-22T11:28:18.646Z,15.03
2022-12-22T11:31:00.532Z,17.02
2022-12-22T11:33:44.523Z,16.44
2022-12-22T11:36:24.121Z,18.11
2022-12-22T11:39:01.421Z,18.80
2022-12-22T11:41:43.515Z,18.94
2022-12-22T11:44:27.694Z,20.58
2022-12-22T11:47:04.772Z,20.44
2022-12-22T11:49:48.228Z,19.81
2022-12-22T11:52:35.854Z,17.40
2022-12-22T11:55:25.075Z,16.42
2022-12-22T11:58:04.901Z,15.01
2022-12-22T12:01:12.610Z,14.62
2022-12-22T12:03:53.967Z,15.63
2022-12-22T12:06:31.738Z,17.25
2022-12-22T12:09:12.051Z,17.85
2022-12-22T12:11:48.208Z,19.77
2022-12-22T12:14:25.569Z,22.46
2022-12-22T12:17:00.501Z,22.58
2022-12-22T12:20:04.386Z,18.70
2022-12-22T12:22:46.078Z,16.70
2022-12-22T12:25:29.283Z,15.37
2022-12-22T12:28:13.119Z,14.53
2022-12-22T12:30:51.894Z,13.42
2022-12-22T12:33:28.405Z,12.59
2022-12-22T12:36:04.200Z,12.19
2022-12-22T12:41:42.302Z,11.49
2022-12-22T12:44:14.900Z,11.29
2022-12-22T12:46:56.492Z,11.29
2022-12-22T12:50:03.298Z,11.23
2022-12-22T12:53:16.719Z,11.57
2022-12-22T12:56:03.515Z,11.72
2022-12-22T12:58:50.315Z,11.65
2022-12-22T13:01:58.404Z,11.22
2022-12-22T13:05:11.304Z,10.84
2022-12-22T13:08:16.749Z,10.53
2022-12-22T13:11:10.135Z,10.59
2022-12-22T13:13:48.784Z,10.55
2022-12-22T13:16:32.621Z,10.61
2022-12-22T13:19:06.706Z,10.73
2022-12-22T13:21:56.013Z,11.12
2022-12-22T13:24:30.891Z,11.14
2022-12-22T13:27:08.090Z,10.95
2022-12-22T13:29:47.736Z,10.98
2022-12-22T13:32:26.194Z,11.09
2022-12-22T13:37:53.807Z,11.55
2022-12-22T13:40:24.903Z,11.60
2022-12-22T13:42:56.153Z,11.48
2022-12-22T13:45:34.833Z,10.76
2022-12-22T13:48:06.065Z,10.52
2022-12-22T13:50:38.080Z,10.24
2022-12-22T13:53:09.071Z,10.15
2022-12-22T13:55:39.095Z,9.92
2022-12-22T13:58:22.030Z,9.83
2022-12-22T14:01:01.688Z,9.95
2022-12-22T14:06:27.732Z,10.43
2022-12-22T14:09:11.171Z,10.54
2022-12-22T14:11:45.554Z,10.28
2022-12-22T14:14:20.535Z,10.30
2022-12-22T14:16:52.861Z,10.00
2022-12-22T14:19:23.310Z,9.88
2022-12-22T14:22:03.735Z,9.79
2022-12-22T14:24:38.715Z,9.66
2022-12-22T14:27:17.706Z,9.62
2022-12-22T14:29:46.561Z,9.58
2022-12-22T14:32:35.489Z,9.59
2022-12-22T14:35:04.622Z,9.49
2022-12-22T14:37:33.449Z,9.48
2022-12-22T14:40:01.875Z,9.31
2022-12-22T14:42:31.781Z,9.14
2022-12-22T14:45:00.625Z,9.08
2022-12-22T14:47:30.636Z,9.02
2022-12-22T14:50:02.479Z,8.98
2022-12-22T14:52:37.636Z,9.01
2022-12-22T14:55:19.464Z,8.96
2022-12-22T14:57:54.667Z,9.02
2022-12-22T15:00:45.483Z,8.96
2022-12-22T15:03:31.932Z,8.89
2022-12-22T15:06:25.597Z,8.87
2022-12-22T15:09:08.818Z,8.85
2022-12-22T15:11:39.914Z,8.75
2022-12-22T15:14:13.010Z,8.82
2022-12-22T15:16:41.635Z,8.77
2022-12-22T15:19:15.302Z,8.65
2022-12-22T15:21:43.985Z,8.54
2022-12-22T15:24:15.385Z,8.46
2022-12-22T15:26:44.422Z,8.44
2022-12-22T15:29:13.125Z,8.30
2022-12-22T15:31:43.236Z,8.29
2022-12-22T15:34:17.617Z,8.28
2022-12-22T15:36:46.134Z,8.24
2022-12-22T15:39:16.844Z,8.20
2022-12-22T15:41:46.235Z,8.29
2022-12-22T15:44:15.137Z,8.26
2022-12-22T15:46:45.864Z,8.25
2022-12-22T15:49:19.119Z,8.24
2022-12-22T15:51:50.950Z,8.26
2022-12-22T15:54:20.035Z,8.40
2022-12-22T15:56:51.236Z,8.34
2022-12-22T15:59:23.510Z,8.30
2022-12-22T16:01:58.367Z,8.21
2022-12-22T16:04:30.791Z,8.17
2022-12-22T16:07:00.323Z,8.15
2022-12-22T16:09:38.109Z,8.15
2022-12-22T16:12:13.114Z,8.06
2022-12-22T16:14:49.793Z,8.06
2022-12-22T16:17:23.112Z,8.08
2022-12-22T16:19:53.128Z,8.06
2022-12-22T16:22:26.978Z,8.11
2022-12-22T16:24:55.630Z,8.01
2022-12-22T16:27:24.136Z,8.00
2022-12-22T16:29:54.941Z,7.94
2022-12-22T16:32:28.444Z,7.80
2022-12-22T16:35:14.820Z,7.77
2022-12-22T16:37:43.662Z,7.75
2022-12-22T16:40:12.687Z,7.76
2022-12-22T16:45:33.258Z,7.78
2022-12-22T16:48:06.579Z,7.90
2022-12-22T16:50:36.650Z,7.84
2022-12-22T16:53:07.068Z,7.70
2022-12-22T16:55:35.944Z,7.76
2022-12-22T16:58:12.831Z,7.80
2022-12-22T17:00:44.615Z,7.75
2022-12-22T17:03:16.095Z,7.62
2022-12-22T17:05:49.178Z,7.54
2022-12-22T17:08:21.841Z,7.56
2022-12-22T17:10:51.902Z,7.52
2022-12-22T17:13:21.334Z,7.59
2022-12-22T17:15:49.711Z,7.55
2022-12-22T17:18:20.446Z,7.48
2022-12-22T17:20:52.349Z,7.44
2022-12-22T17:23:30.878Z,7.44
2022-12-22T17:26:01.559Z,7.42
2022-12-22T17:28:30.280Z,7.56
2022-12-22T17:30:59.268Z,7.59
2022-12-22T17:33:27.891Z,7.47
2022-12-22T17:35:58.454Z,7.53
2022-12-22T17:38:28.866Z,7.50
2022-12-22T17:40:57.564Z,7.57
2022-12-22T17:43:26.271Z,7.60
2022-12-22T17:45:54.635Z,7.60
2022-12-22T17:48:22.984Z,7.59
2022-12-22T17:50:51.707Z,7.56
2022-12-22T17:53:22.432Z,7.59
2022-12-22T17:56:08.980Z,7.65
2022-12-22T17:58:38.456Z,7.67
2022-12-22T18:01:07.672Z,7.63
2022-12-22T18:03:36.020Z,7.61
2022-12-22T18:06:05.274Z,7.69
2022-12-22T18:08:35.871Z,7.72
2022-12-22T18:11:04.675Z,7.69
2022-12-22T18:13:33.958Z,7.68
2022-12-22T18:16:02.616Z,7.69
2022-12-22T18:18:32.420Z,7.77
2022-12-22T18:21:06.476Z,7.71
2022-12-22T18:23:39.684Z,7.76
2022-12-22T18:26:18.173Z,7.84
2022-12-22T18:28:46.786Z,7.86
2022-12-22T18:31:15.232Z,7.86
2022-12-22T18:33:45.955Z,7.90
2022-12-22T18:36:18.677Z,7.88
2022-12-22T18:38:49.992Z,7.98
2022-12-22T18:41:21.995Z,7.97
2022-12-22T18:43:52.534Z,7.99
2022-12-22T18:46:22.010Z,8.04
2022-12-22T18:48:50.699Z,8.05
2022-12-22T18:51:22.092Z,8.05
2022-12-22T18:53:54.732Z,8.05
2022-12-22T18:56:23.545Z,8.04
2022-12-22T18:58:52.309Z,8.08
2022-12-22T19:01:24.242Z,8.08
2022-12-22T19:03:55.279Z,8.05
2022-12-22T19:06:25.204Z,8.07
2022-12-22T19:08:55.400Z,8.16
2022-12-22T19:11:29.681Z,8.17
2022-12-22T19:13:58.820Z,8.20
2022-12-22T19:16:28.073Z,8.21
2022-12-22T19:18:59.826Z,8.17
2022-12-22T19:21:28.450Z,8.22
2022-12-22T19:23:58.389Z,8.16
2022-12-22T19:26:28.742Z,8.21
2022-12-22T19:29:00.536Z,8.15
2022-12-22T19:31:31.818Z,8.17
2022-12-22T19:34:02.446Z,8.15
2022-12-22T19:36:33.259Z,8.16
2022-12-22T19:39:05.450Z,8.20
2022-12-22T19:41:41.303Z,8.27
2022-12-22T19:44:37.485Z,8.24
2022-12-22T19:47:16.662Z,8.33
2022-12-22T19:49:45.730Z,8.30
2022-12-22T19:52:14.407Z,8.30
2022-12-22T19:54:44.684Z,8.31
2022-12-22T19:57:19.111Z,8.39
2022-12-22T19:59:50.809Z,8.35
2022-12-22T20:02:31.985Z,8.38
2022-12-22T20:05:03.600Z,8.47
2022-12-22T20:07:36.854Z,8.42
2022-12-22T20:10:08.433Z,8.45
2022-12-22T20:12:42.384Z,8.46
2022-12-22T20:15:17.977Z,8.44
2022-12-22T20:17:47.199Z,8.53
2022-12-22T20:20:17.072Z,8.51
2022-12-22T20:22:57.561Z,8.59
2022-12-22T20:25:38.489Z,8.62
2022-12-22T20:28:13.689Z,8.60
2022-12-22T20:30:42.839Z,8.61
2022-12-22T20:33:12.201Z,8.61
2022-12-22T20:35:45.571Z,8.59
2022-12-22T20:38:19.194Z,8.63
2022-12-22T20:40:50.656Z,8.62
2022-12-22T20:43:22.848Z,8.66
2022-12-22T20:45:57.537Z,8.66
2022-12-22T20:48:32.746Z,8.70
2022-12-22T20:51:02.111Z,8.77
2022-12-22T20:53:30.840Z,8.80
2022-12-22T20:56:01.908Z,8.78
2022-12-22T20:58:34.790Z,8.81
2022-12-22T21:01:04.321Z,8.86
2022-12-22T21:03:32.826Z,8.83
2022-12-22T21:06:02.129Z,8.82
2022-12-22T21:08:31.355Z,8.90
2022-12-22T21:11:01.982Z,8.88
2022-12-22T21:13:30.448Z,8.92
2022-12-22T21:15:58.858Z,8.92
2022-12-22T21:18:27.783Z,8.91
2022-12-22T21:20:56.524Z,8.92
2022-12-22T21:23:25.038Z,8.87
2022-12-22T21:25:54.446Z,8.96
2022-12-22T21:28:30.813Z,8.96
2022-12-22T21:31:00.292Z,9.01
2022-12-22T21:33:32.283Z,9.01
2022-12-22T21:36:03.231Z,8.99
2022-12-22T21:38:34.824Z,9.03
2022-12-22T21:41:03.828Z,9.01
2022-12-22T21:43:33.671Z,9.05
2022-12-22T21:46:05.816Z,9.00
2022-12-22T21:48:38.303Z,9.03
2022-12-22T21:51:08.222Z,9.02
2022-12-22T21:53:37.250Z,9.09
2022-12-22T21:56:17.416Z,9.04
2022-12-22T21:58:48.034Z,9.06
2022-12-22T22:01:17.977Z,9.00
2022-12-22T22:03:46.461Z,9.05
2022-12-22T22:06:14.933Z,9.05
2022-12-22T22:08:43.389Z,9.00
2022-12-22T22:11:19.530Z,8.99
2022-12-22T22:13:52.223Z,8.99
2022-12-22T22:16:21.784Z,8.92
2022-12-22T22:18:51.278Z,8.99
2022-12-22T22:21:20.636Z,8.91
2022-12-22T22:23:49.490Z,8.87
2022-12-22T22:26:18.381Z,8.88
2022-12-22T22:28:49.440Z,8.89
2022-12-22T22:31:18.280Z,8.86
2022-12-22T22:33:49.742Z,8.87
2022-12-22T22:36:18.493Z,8.90
2022-12-22T22:38:51.902Z,8.88
2022-12-22T22:41:20.851Z,8.82
2022-12-22T22:43:50.649Z,8.86
2022-12-22T22:46:19.347Z,8.85
2022-12-22T22:48:48.483Z,8.82
2022-12-22T22:51:17.089Z,8.80
2022-12-22T22:53:45.590Z,8.81
2022-12-22T22:56:14.037Z,8.82
2022-12-22T22:58:42.483Z,8.81
2022-12-22T23:01:12.675Z,8.74
2022-12-22T23:03:41.974Z,8.81
2022-12-22T23:06:13.828Z,8.83
2022-12-22T23:08:42.450Z,8.84
2022-12-22T23:11:13.860Z,8.87
2022-12-22T23:13:42.750Z,8.85
2022-12-22T23:16:12.683Z,8.85
2022-12-22T23:18:41.240Z,8.87
2022-12-22T23:21:10.079Z,8.85
2022-12-22T23:23:38.785Z,8.85
2022-12-22T23:26:07.660Z,8.83
2022-12-22T23:28:36.117Z,8.92
2022-12-22T23:31:04.603Z,8.87
2022-12-22T23:33:34.653Z,8.87
2022-12-22T23:36:03.046Z,8.89
2022-12-22T23:38:32.035Z,8.94
2022-12-22T23:41:03.276Z,8.90
2022-12-22T23:43:32.083Z,8.95
2022-12-22T23:46:00.933Z,8.91
2022-12-22T23:48:29.449Z,8.92
2022-12-22T23:50:59.231Z,9.01
2022-12-22T23:53:27.680Z,8.94
2022-12-22T23:55:56.247Z,8.96
2022-12-22T23:58:24.918Z,9.01
